JST816 YSSY-YBCG
Flight info
| Callsign | JST816 |
|---|---|
| Flight time | N/A |
| Altitude | 37000 |
| Route | TESAT H252 OLSEM Y193 BANDA Y43 GREAV DCT GOMOL |
| Aircraft | A320/M-SDE3FGHIRWY/LB1 |
Departure
| Time | N/A |
|---|---|
| Airport | Sydney Kingsford Smith International Airport (YSSY) |
Arrival
| Time | 2026-05-06 15:38 |
|---|---|
| Airport | Gold Coast Airport (YBCG) |
| Time | Latitude | Longitude | Altitude | Speed | Heading |
|---|---|---|---|---|---|
| 2026-05-06 15:04 | -31.20804 | 152.44799 | 37079 ft | 436 kts | 2° |
| 2026-05-06 15:04 | -31.17868 | 152.45701 | 37081 ft | 436 kts | 2° |
| 2026-05-06 15:05 | -31.11997 | 152.47502 | 37069 ft | 436 kts | 2° |
| 2026-05-06 15:05 | -31.06160 | 152.49297 | 37074 ft | 436 kts | 2° |
| 2026-05-06 15:06 | -31.00286 | 152.51107 | 37069 ft | 435 kts | 2° |
| 2026-05-06 15:06 | -30.94413 | 152.52905 | 37072 ft | 435 kts | 2° |
| 2026-05-06 15:07 | -30.88568 | 152.54691 | 37072 ft | 435 kts | 2° |
| 2026-05-06 15:07 | -30.82725 | 152.56480 | 37070 ft | 435 kts | 2° |
| 2026-05-06 15:08 | -30.76927 | 152.58720 | 37074 ft | 447 kts | 9° |
| 2026-05-06 15:08 | -30.71141 | 152.61411 | 37071 ft | 447 kts | 8° |
| 2026-05-06 15:09 | -30.65363 | 152.64097 | 37078 ft | 447 kts | 9° |
| 2026-05-06 15:09 | -30.59584 | 152.66778 | 37073 ft | 446 kts | 8° |
| 2026-05-06 15:10 | -30.53850 | 152.69427 | 37073 ft | 446 kts | 8° |
| 2026-05-06 15:10 | -30.48065 | 152.72095 | 37079 ft | 447 kts | 8° |
| 2026-05-06 15:11 | -30.42292 | 152.74757 | 37083 ft | 447 kts | 8° |
| 2026-05-06 15:11 | -30.36511 | 152.77414 | 37086 ft | 447 kts | 8° |
| 2026-05-06 15:12 | -30.30732 | 152.80064 | 37088 ft | 447 kts | 8° |
| 2026-05-06 15:12 | -30.24991 | 152.82709 | 37085 ft | 447 kts | 8° |
| 2026-05-06 15:13 | -30.19200 | 152.85368 | 37079 ft | 447 kts | 8° |
| 2026-05-06 15:13 | -30.13397 | 152.87830 | 37077 ft | 434 kts | 0° |
| 2026-05-06 15:13 | -30.10483 | 152.88474 | 37083 ft | 419 kts | 352° |
| 2026-05-06 15:14 | -30.07653 | 152.88636 | 37087 ft | 405 kts | 345° |
| 2026-05-06 15:14 | -30.02111 | 152.88127 | 37084 ft | 399 kts | 342° |
| 2026-05-06 15:15 | -29.96571 | 152.87591 | 37087 ft | 400 kts | 342° |
| 2026-05-06 15:15 | -29.91024 | 152.87071 | 37090 ft | 399 kts | 342° |
| 2026-05-06 15:16 | -29.85494 | 152.86546 | 37092 ft | 399 kts | 342° |
| 2026-05-06 15:16 | -29.79958 | 152.86021 | 37087 ft | 399 kts | 342° |
| 2026-05-06 15:17 | -29.74426 | 152.85498 | 37083 ft | 399 kts | 342° |
| 2026-05-06 15:17 | -29.68894 | 152.84968 | 37084 ft | 399 kts | 342° |
| 2026-05-06 15:17 | -29.66130 | 152.84707 | 36934 ft | 399 kts | 342° |
| 2026-05-06 15:18 | -29.63390 | 152.84453 | 36679 ft | 399 kts | 342° |
| 2026-05-06 15:18 | -29.60625 | 152.84194 | 36424 ft | 399 kts | 342° |
| 2026-05-06 15:18 | -29.57851 | 152.83927 | 36173 ft | 400 kts | 342° |
| 2026-05-06 15:18 | -29.55072 | 152.83657 | 35923 ft | 401 kts | 343° |
| 2026-05-06 15:19 | -29.52289 | 152.83392 | 35682 ft | 402 kts | 343° |
| 2026-05-06 15:19 | -29.49494 | 152.83127 | 35439 ft | 403 kts | 343° |
| 2026-05-06 15:19 | -29.46691 | 152.82863 | 34800 ft | 405 kts | 343° |
| 2026-05-06 15:19 | -29.43861 | 152.82634 | 34018 ft | 414 kts | 348° |
| 2026-05-06 15:20 | -29.40926 | 152.82829 | 33063 ft | 432 kts | 358° |
| 2026-05-06 15:20 | -29.37925 | 152.83606 | 32085 ft | 450 kts | 8° |
| 2026-05-06 15:20 | -29.34943 | 152.84850 | 31114 ft | 459 kts | 11° |
| 2026-05-06 15:20 | -29.31942 | 152.86133 | 30041 ft | 463 kts | 12° |
| 2026-05-06 15:21 | -29.28911 | 152.87419 | 29069 ft | 463 kts | 12° |
| 2026-05-06 15:21 | -29.25929 | 152.88687 | 28555 ft | 453 kts | 13° |
| 2026-05-06 15:21 | -29.23014 | 152.89922 | 27858 ft | 449 kts | 13° |
| 2026-05-06 15:21 | -29.20098 | 152.91149 | 27179 ft | 444 kts | 13° |
| 2026-05-06 15:22 | -29.17206 | 152.92363 | 26498 ft | 440 kts | 13° |
| 2026-05-06 15:22 | -29.14333 | 152.93567 | 25843 ft | 437 kts | 13° |
| 2026-05-06 15:22 | -29.11488 | 152.94756 | 25189 ft | 434 kts | 13° |
| 2026-05-06 15:22 | -29.08653 | 152.95939 | 24539 ft | 431 kts | 13° |
| 2026-05-06 15:23 | -29.05878 | 152.97099 | 23904 ft | 428 kts | 13° |
| 2026-05-06 15:23 | -29.03086 | 152.98269 | 23212 ft | 426 kts | 14° |
| 2026-05-06 15:23 | -29.00318 | 152.99428 | 22587 ft | 420 kts | 14° |
| 2026-05-06 15:23 | -28.97587 | 153.00571 | 22000 ft | 415 kts | 14° |
| 2026-05-06 15:24 | -28.94889 | 153.01710 | 21430 ft | 412 kts | 16° |
| 2026-05-06 15:24 | -28.92337 | 153.03235 | 20860 ft | 418 kts | 29° |
| 2026-05-06 15:24 | -28.90116 | 153.05398 | 20349 ft | 423 kts | 43° |
| 2026-05-06 15:24 | -28.88356 | 153.08098 | 19815 ft | 427 kts | 56° |
| 2026-05-06 15:25 | -28.87164 | 153.11212 | 19273 ft | 432 kts | 70° |
| 2026-05-06 15:25 | -28.86607 | 153.14590 | 18708 ft | 434 kts | 82° |
| 2026-05-06 15:25 | -28.86318 | 153.18021 | 18075 ft | 434 kts | 82° |
| 2026-05-06 15:25 | -28.86031 | 153.21444 | 17470 ft | 431 kts | 82° |
| 2026-05-06 15:26 | -28.85841 | 153.23695 | 17067 ft | 430 kts | 82° |
| 2026-05-06 15:26 | -28.85451 | 153.28213 | 16235 ft | 426 kts | 82° |
| 2026-05-06 15:26 | -28.85255 | 153.30444 | 15828 ft | 425 kts | 82° |
| 2026-05-06 15:26 | -28.84962 | 153.33782 | 15296 ft | 420 kts | 82° |
| 2026-05-06 15:27 | -28.84670 | 153.37094 | 14707 ft | 417 kts | 82° |
| 2026-05-06 15:27 | -28.84311 | 153.40348 | 14182 ft | 409 kts | 75° |
| 2026-05-06 15:27 | -28.83403 | 153.43332 | 13240 ft | 392 kts | 59° |
| 2026-05-06 15:27 | -28.81903 | 153.45823 | 12693 ft | 375 kts | 45° |
| 2026-05-06 15:28 | -28.80009 | 153.47797 | 12146 ft | 365 kts | 32° |
| 2026-05-06 15:28 | -28.77825 | 153.49195 | 11608 ft | 357 kts | 19° |
| 2026-05-06 15:28 | -28.75529 | 153.50225 | 11071 ft | 353 kts | 18° |
| 2026-05-06 15:28 | -28.73254 | 153.51235 | 10702 ft | 346 kts | 18° |
| 2026-05-06 15:29 | -28.71058 | 153.52211 | 10576 ft | 332 kts | 18° |
| 2026-05-06 15:29 | -28.68943 | 153.53154 | 10450 ft | 320 kts | 18° |
| 2026-05-06 15:29 | -28.66905 | 153.54063 | 10337 ft | 309 kts | 18° |
| 2026-05-06 15:29 | -28.64928 | 153.54942 | 10138 ft | 302 kts | 18° |
| 2026-05-06 15:30 | -28.62987 | 153.55800 | 10012 ft | 298 kts | 18° |
| 2026-05-06 15:30 | -28.61069 | 153.56645 | 9586 ft | 302 kts | 18° |
| 2026-05-06 15:30 | -28.59081 | 153.57521 | 9147 ft | 303 kts | 18° |
| 2026-05-06 15:30 | -28.57118 | 153.58386 | 8728 ft | 303 kts | 18° |
| 2026-05-06 15:31 | -28.55180 | 153.59242 | 8320 ft | 303 kts | 18° |
| 2026-05-06 15:31 | -28.53213 | 153.60113 | 7904 ft | 303 kts | 19° |
| 2026-05-06 15:31 | -28.51238 | 153.60956 | 7483 ft | 303 kts | 17° |
| 2026-05-06 15:32 | -28.47364 | 153.62427 | 6660 ft | 282 kts | 15° |
| 2026-05-06 15:32 | -28.45526 | 153.63103 | 6261 ft | 273 kts | 15° |
| 2026-05-06 15:32 | -28.43744 | 153.63761 | 5875 ft | 263 kts | 16° |
| 2026-05-06 15:32 | -28.42032 | 153.64396 | 5516 ft | 254 kts | 16° |
| 2026-05-06 15:33 | -28.40359 | 153.64881 | 5175 ft | 242 kts | 2° |
| 2026-05-06 15:33 | -28.38740 | 153.64703 | 4847 ft | 229 kts | 340° |
| 2026-05-06 15:33 | -28.37336 | 153.63943 | 4541 ft | 223 kts | 328° |
| 2026-05-06 15:33 | -28.35994 | 153.63067 | 4236 ft | 222 kts | 328° |
| 2026-05-06 15:34 | -28.34650 | 153.62196 | 3937 ft | 222 kts | 329° |
| 2026-05-06 15:34 | -28.33313 | 153.61334 | 3629 ft | 219 kts | 329° |
| 2026-05-06 15:34 | -28.32014 | 153.60501 | 3346 ft | 210 kts | 329° |
| 2026-05-06 15:34 | -28.30762 | 153.59698 | 3069 ft | 205 kts | 330° |
| 2026-05-06 15:35 | -28.29524 | 153.58908 | 2790 ft | 204 kts | 330° |
| 2026-05-06 15:35 | -28.28288 | 153.58119 | 2511 ft | 204 kts | 331° |
| 2026-05-06 15:35 | -28.27070 | 153.57341 | 2254 ft | 202 kts | 331° |
| 2026-05-06 15:35 | -28.25857 | 153.56566 | 1996 ft | 198 kts | 331° |
| 2026-05-06 15:36 | -28.24663 | 153.55803 | 1702 ft | 195 kts | 331° |
| 2026-05-06 15:36 | -28.23517 | 153.55072 | 1438 ft | 181 kts | 331° |
| 2026-05-06 15:36 | -28.22490 | 153.54419 | 1238 ft | 157 kts | 331° |
| 2026-05-06 15:36 | -28.21577 | 153.53836 | 994 ft | 145 kts | 330° |
| 2026-05-06 15:37 | -28.20710 | 153.53283 | 782 ft | 141 kts | 330° |
| 2026-05-06 15:37 | -28.19865 | 153.52753 | 598 ft | 140 kts | 330° |
| 2026-05-06 15:37 | -28.19011 | 153.52215 | 412 ft | 140 kts | 330° |
| 2026-05-06 15:37 | -28.18169 | 153.51671 | 240 ft | 140 kts | 330° |
| 2026-05-06 15:38 | -28.17324 | 153.51131 | 83 ft | 140 kts | 329° |
| 2026-05-06 15:38 | -28.16517 | 153.50614 | 28 ft | 116 kts | 330° |
| 2026-05-06 15:38 | -28.15962 | 153.50268 | 28 ft | 61 kts | 330° |
| 2026-05-06 15:38 | -28.15712 | 153.50108 | 29 ft | 24 kts | 338° |
| 2026-05-06 15:39 | -28.15609 | 153.50199 | 30 ft | 15 kts | 90° |
| 2026-05-06 15:39 | -28.15653 | 153.50285 | 29 ft | 14 kts | 154° |
| 2026-05-06 15:39 | -28.15743 | 153.50343 | 29 ft | 17 kts | 150° |
| 2026-05-06 15:39 | -28.15855 | 153.50415 | 28 ft | 20 kts | 150° |
| 2026-05-06 15:40 | -28.15987 | 153.50499 | 27 ft | 23 kts | 151° |
| 2026-05-06 15:40 | -28.16137 | 153.50593 | 32 ft | 26 kts | 150° |
| 2026-05-06 15:40 | -28.16302 | 153.50698 | 29 ft | 28 kts | 151° |
| 2026-05-06 15:40 | -28.16472 | 153.50807 | 27 ft | 19 kts | 149° |
| 2026-05-06 15:41 | -28.16473 | 153.50931 | 25 ft | 17 kts | 83° |
| 2026-05-06 15:41 | -28.16555 | 153.51006 | 25 ft | 17 kts | 152° |
| 2026-05-06 15:41 | -28.16591 | 153.51081 | 25 ft | 12 kts | 56° |
| 2026-05-06 15:41 | -28.16579 | 153.51108 | 25 ft | 0 kts | 62° |